createdAt,value
2022-10-06T00:01:53.721Z,12.10
2022-10-06T00:04:21.107Z,12.10
2022-10-06T00:06:53.138Z,12.00
2022-10-06T00:09:20.265Z,12.00
2022-10-06T00:11:47.625Z,12.10
2022-10-06T00:14:21.486Z,12.00
2022-10-06T00:16:51.289Z,12.00
2022-10-06T00:19:20.870Z,12.00
2022-10-06T00:21:53.305Z,12.00
2022-10-06T00:24:20.598Z,12.00
2022-10-06T00:26:47.651Z,12.00
2022-10-06T00:29:19.402Z,11.90
2022-10-06T00:31:49.131Z,11.90
2022-10-06T00:34:18.783Z,11.90
2022-10-06T00:36:45.882Z,12.00
2022-10-06T00:39:15.306Z,11.90
2022-10-06T00:41:42.764Z,11.90
2022-10-06T00:44:14.720Z,11.90
2022-10-06T00:46:58.825Z,11.90
2022-10-06T00:49:37.113Z,11.90
2022-10-06T00:52:12.097Z,12.00
2022-10-06T00:54:44.405Z,11.90
2022-10-06T00:57:12.155Z,12.00
2022-10-06T00:59:40.121Z,12.00
2022-10-06T01:02:27.713Z,12.00
2022-10-06T01:05:03.594Z,12.00
2022-10-06T01:07:35.429Z,12.00
2022-10-06T01:10:04.578Z,12.00
2022-10-06T01:12:33.381Z,12.00
2022-10-06T01:15:00.880Z,12.00
2022-10-06T01:17:38.274Z,12.00
2022-10-06T01:20:09.168Z,12.00
2022-10-06T01:22:47.806Z,12.00
2022-10-06T01:25:17.358Z,11.90
2022-10-06T01:27:53.606Z,11.90
2022-10-06T01:30:35.875Z,11.90
2022-10-06T01:33:03.862Z,11.90
2022-10-06T01:35:38.567Z,12.00
2022-10-06T01:38:07.017Z,11.90
2022-10-06T01:40:37.561Z,11.90
2022-10-06T01:43:07.478Z,11.90
2022-10-06T01:45:34.902Z,11.90
2022-10-06T01:48:07.145Z,12.00
2022-10-06T01:50:39.153Z,12.00
2022-10-06T01:53:08.600Z,12.00
2022-10-06T01:55:38.359Z,12.00
2022-10-06T01:58:11.128Z,12.00
2022-10-06T02:00:39.795Z,12.00
2022-10-06T02:03:11.709Z,12.00
2022-10-06T02:05:39.159Z,12.00
2022-10-06T02:08:06.386Z,12.00
2022-10-06T02:10:40.644Z,12.00
2022-10-06T02:13:15.131Z,12.00
2022-10-06T02:15:46.160Z,12.00
2022-10-06T02:18:13.438Z,12.00
2022-10-06T02:20:43.138Z,12.00
2022-10-06T02:23:19.418Z,12.00
2022-10-06T02:25:51.306Z,12.00
2022-10-06T02:28:20.935Z,12.00
2022-10-06T02:30:50.767Z,12.00
2022-10-06T02:33:20.414Z,12.00
2022-10-06T02:35:55.654Z,12.10
2022-10-06T02:38:28.441Z,12.10
2022-10-06T02:41:02.226Z,12.10
2022-10-06T02:43:31.622Z,12.10
2022-10-06T02:46:02.930Z,12.10
2022-10-06T02:48:33.282Z,12.10
2022-10-06T02:51:09.584Z,12.10
2022-10-06T02:53:40.116Z,12.10
2022-10-06T02:56:12.876Z,12.10
2022-10-06T02:58:47.858Z,12.10
2022-10-06T03:01:26.897Z,12.10
2022-10-06T03:03:59.245Z,12.10
2022-10-06T03:06:32.247Z,12.20
2022-10-06T03:09:21.947Z,12.10
2022-10-06T03:11:52.332Z,12.10
2022-10-06T03:14:30.445Z,12.10
2022-10-06T03:17:00.179Z,12.20
2022-10-06T03:19:29.526Z,12.10
2022-10-06T03:21:56.606Z,12.10
2022-10-06T03:24:36.651Z,12.10
2022-10-06T03:27:04.544Z,12.10
2022-10-06T03:29:31.874Z,12.10
2022-10-06T03:32:01.999Z,12.10
2022-10-06T03:34:32.311Z,12.10
2022-10-06T03:37:04.310Z,12.10
2022-10-06T03:39:38.827Z,12.10
2022-10-06T03:42:06.137Z,12.10
2022-10-06T03:44:38.117Z,12.10
2022-10-06T03:47:05.958Z,12.10
2022-10-06T03:49:36.304Z,12.10
2022-10-06T03:52:03.394Z,12.10
2022-10-06T03:54:35.020Z,12.10
2022-10-06T03:57:07.181Z,12.10
2022-10-06T03:59:36.490Z,12.00
2022-10-06T04:02:05.545Z,12.00
2022-10-06T04:04:38.998Z,12.00
2022-10-06T04:07:09.330Z,12.00
2022-10-06T04:09:38.602Z,12.00
2022-10-06T04:12:08.197Z,12.00
2022-10-06T04:14:43.257Z,12.10
2022-10-06T04:17:10.867Z,12.00
2022-10-06T04:19:40.568Z,12.00
2022-10-06T04:22:12.894Z,11.90
2022-10-06T04:24:40.363Z,11.90
2022-10-06T04:27:26.382Z,11.90
2022-10-06T04:29:59.290Z,11.90
2022-10-06T04:32:29.702Z,11.90
2022-10-06T04:34:59.446Z,11.90
2022-10-06T04:37:28.952Z,11.90
2022-10-06T04:39:58.936Z,11.90
2022-10-06T04:42:32.537Z,11.90
2022-10-06T04:45:03.259Z,11.90
2022-10-06T04:47:35.569Z,11.80
2022-10-06T04:50:06.077Z,11.90
2022-10-06T04:52:35.344Z,11.80
2022-10-06T04:55:03.301Z,11.90
2022-10-06T04:57:35.481Z,11.90
2022-10-06T05:00:24.110Z,11.90
2022-10-06T05:02:57.960Z,11.90
2022-10-06T05:05:25.165Z,11.90
2022-10-06T05:07:56.450Z,11.90
2022-10-06T05:10:23.910Z,11.90
2022-10-06T05:12:53.732Z,11.90
2022-10-06T05:15:23.560Z,11.90
2022-10-06T05:17:55.626Z,11.90
2022-10-06T05:20:23.024Z,11.90
2022-10-06T05:22:54.005Z,11.90
2022-10-06T05:25:24.215Z,11.90
2022-10-06T05:27:54.708Z,11.90
2022-10-06T05:30:22.390Z,12.00
2022-10-06T05:32:56.559Z,12.00
2022-10-06T05:35:31.855Z,12.00
2022-10-06T05:38:01.228Z,12.10
2022-10-06T05:40:35.931Z,12.10
2022-10-06T05:43:03.043Z,12.20
2022-10-06T05:45:32.762Z,12.20
2022-10-06T05:48:00.123Z,12.40
2022-10-06T05:50:27.310Z,12.40
2022-10-06T05:52:57.846Z,12.50
2022-10-06T05:55:32.125Z,12.60
2022-10-06T05:57:59.450Z,12.60
2022-10-06T06:00:26.583Z,12.60
2022-10-06T06:02:56.246Z,12.70
2022-10-06T06:05:28.061Z,12.70
2022-10-06T06:07:58.087Z,12.80
2022-10-06T06:10:30.322Z,12.90
2022-10-06T06:12:59.707Z,13.00
2022-10-06T06:15:58.426Z,13.00
2022-10-06T06:18:29.347Z,13.10
2022-10-06T06:21:02.260Z,13.10
2022-10-06T06:23:38.044Z,13.20
2022-10-06T06:26:14.422Z,13.20
2022-10-06T06:28:50.943Z,13.20
2022-10-06T06:31:29.214Z,13.30
2022-10-06T06:34:00.461Z,13.30
2022-10-06T06:36:36.843Z,13.40
2022-10-06T06:39:12.629Z,13.40
2022-10-06T06:41:47.727Z,13.40
2022-10-06T06:44:42.055Z,13.50
2022-10-06T06:47:23.167Z,13.50
2022-10-06T06:49:56.141Z,13.50
2022-10-06T06:52:26.063Z,13.60
2022-10-06T06:54:58.009Z,13.70
2022-10-06T06:57:26.064Z,13.70
2022-10-06T07:00:04.398Z,13.80
2022-10-06T07:02:34.165Z,13.90
2022-10-06T07:05:03.480Z,14.00
2022-10-06T07:07:32.645Z,14.10
2022-10-06T07:10:00.783Z,14.10
2022-10-06T07:12:29.494Z,14.20
2022-10-06T07:15:16.956Z,14.30
2022-10-06T07:18:09.538Z,14.40
2022-10-06T07:20:55.608Z,14.50
2022-10-06T07:23:42.949Z,14.60
2022-10-06T07:26:17.316Z,14.70
2022-10-06T07:28:49.928Z,14.70
2022-10-06T07:31:24.163Z,14.80
2022-10-06T07:33:51.425Z,14.90
2022-10-06T07:36:21.936Z,14.90
2022-10-06T07:38:49.172Z,15.00
2022-10-06T07:41:21.070Z,15.10
2022-10-06T07:43:55.281Z,15.10
2022-10-06T07:46:24.866Z,15.20
2022-10-06T07:49:18.286Z,15.30
2022-10-06T07:51:47.445Z,15.40
2022-10-06T07:54:14.800Z,15.50
2022-10-06T07:56:50.285Z,15.60
2022-10-06T07:59:21.013Z,15.60
2022-10-06T08:01:52.529Z,15.70
2022-10-06T08:04:20.059Z,15.80
2022-10-06T08:06:49.605Z,15.90
2022-10-06T08:09:16.652Z,15.90
2022-10-06T08:11:48.831Z,15.90
2022-10-06T08:14:15.881Z,15.80
2022-10-06T08:16:45.671Z,15.90
2022-10-06T08:19:21.021Z,15.90
2022-10-06T08:21:50.350Z,15.90
2022-10-06T08:24:21.030Z,15.90
2022-10-06T08:26:48.374Z,15.90
2022-10-06T08:29:20.290Z,15.90
2022-10-06T08:31:49.912Z,16.00
2022-10-06T08:34:17.080Z,16.10
2022-10-06T08:37:02.259Z,16.10
2022-10-06T08:39:31.574Z,16.20
2022-10-06T08:41:58.891Z,16.30
2022-10-06T08:44:40.772Z,16.40
2022-10-06T08:47:22.692Z,16.40
2022-10-06T08:49:52.904Z,16.50
2022-10-06T08:52:33.568Z,16.60
2022-10-06T08:55:27.589Z,16.70
2022-10-06T08:58:33.319Z,16.90
2022-10-06T09:01:09.649Z,17.00
2022-10-06T09:03:38.561Z,17.10
2022-10-06T09:06:31.386Z,17.20
2022-10-06T09:09:04.652Z,17.30
2022-10-06T09:11:52.375Z,17.40
2022-10-06T09:14:45.396Z,17.50
2022-10-06T09:17:27.007Z,17.70
2022-10-06T09:20:01.608Z,17.80
2022-10-06T09:22:31.297Z,17.90
2022-10-06T09:25:22.000Z,17.60
2022-10-06T09:28:00.655Z,17.90
2022-10-06T09:30:32.955Z,17.90
2022-10-06T09:33:05.825Z,17.90
2022-10-06T09:35:58.861Z,17.90
2022-10-06T09:38:55.361Z,17.90
2022-10-06T09:41:32.094Z,17.80
2022-10-06T09:44:04.920Z,17.70
2022-10-06T09:46:41.637Z,17.60
2022-10-06T09:49:26.907Z,17.60
2022-10-06T09:52:03.682Z,17.70
2022-10-06T09:54:34.809Z,17.70
2022-10-06T09:57:12.883Z,17.70
2022-10-06T09:59:45.064Z,17.70
2022-10-06T10:02:38.335Z,17.60
2022-10-06T10:05:20.230Z,17.60
2022-10-06T10:08:01.760Z,17.50
2022-10-06T10:10:29.402Z,17.50
2022-10-06T10:12:59.960Z,17.40
2022-10-06T10:15:53.504Z,17.40
2022-10-06T10:18:26.802Z,17.50
2022-10-06T10:21:05.022Z,17.50
2022-10-06T10:23:42.646Z,17.50
2022-10-06T10:26:44.787Z,17.60
2022-10-06T10:29:15.181Z,17.60
2022-10-06T10:31:50.991Z,17.70
2022-10-06T10:34:35.530Z,17.80
2022-10-06T10:37:19.674Z,17.90
2022-10-06T10:40:02.360Z,17.90
2022-10-06T10:42:49.749Z,18.00
2022-10-06T10:45:23.409Z,18.00
2022-10-06T10:47:52.726Z,18.00
2022-10-06T10:50:46.059Z,18.10
2022-10-06T10:53:25.219Z,18.00
2022-10-06T10:55:53.738Z,17.90
2022-10-06T10:58:31.149Z,18.00
2022-10-06T11:01:25.553Z,18.10
2022-10-06T11:03:58.664Z,17.30
2022-10-06T11:06:59.473Z,18.10
2022-10-06T11:09:47.837Z,18.00
2022-10-06T11:12:34.270Z,17.90
2022-10-06T11:15:31.373Z,17.80
2022-10-06T11:18:31.825Z,17.80
2022-10-06T11:21:20.879Z,17.90
2022-10-06T11:24:05.439Z,17.80
2022-10-06T11:26:59.786Z,17.80
2022-10-06T11:29:35.481Z,17.80
2022-10-06T11:32:38.250Z,17.90
2022-10-06T11:35:21.607Z,18.00
2022-10-06T11:38:06.210Z,18.10
2022-10-06T11:41:09.782Z,18.30
2022-10-06T11:43:51.961Z,18.50
2022-10-06T11:46:38.283Z,18.50
2022-10-06T11:49:29.418Z,18.60
2022-10-06T11:55:08.689Z,21.90
2022-10-06T11:58:23.538Z,18.30
2022-10-06T12:00:55.383Z,18.30
2022-10-06T12:03:28.209Z,18.20
2022-10-06T12:06:03.279Z,18.10
2022-10-06T12:08:39.149Z,18.10
2022-10-06T12:11:39.269Z,18.10
2022-10-06T12:17:45.392Z,18.20
2022-10-06T12:20:27.831Z,18.20
2022-10-06T12:23:35.662Z,18.40
2022-10-06T12:26:36.080Z,18.30
2022-10-06T12:29:22.350Z,18.40
2022-10-06T12:32:00.071Z,18.40
2022-10-06T12:34:43.869Z,18.40
2022-10-06T12:37:30.368Z,18.40
2022-10-06T12:40:40.435Z,18.40
2022-10-06T12:43:22.526Z,18.30
2022-10-06T12:45:58.007Z,18.20
2022-10-06T12:48:53.327Z,18.20
2022-10-06T12:51:41.519Z,18.20
2022-10-06T12:54:44.359Z,18.20
2022-10-06T12:57:23.771Z,18.30
2022-10-06T12:59:53.711Z,18.30
2022-10-06T13:02:28.056Z,18.40
2022-10-06T13:05:10.343Z,18.40
2022-10-06T13:08:00.558Z,18.40
2022-10-06T13:10:36.138Z,18.30
2022-10-06T13:13:25.166Z,18.30
2022-10-06T13:16:00.711Z,18.20
2022-10-06T13:18:32.850Z,18.20
2022-10-06T13:21:01.071Z,18.10
2022-10-06T13:23:28.315Z,18.10
2022-10-06T13:26:18.760Z,18.10
2022-10-06T13:28:49.915Z,18.10
2022-10-06T13:31:36.650Z,18.10
2022-10-06T13:34:18.823Z,18.10
2022-10-06T13:36:50.036Z,18.10
2022-10-06T13:39:27.034Z,18.10
2022-10-06T13:42:04.502Z,18.00
2022-10-06T13:44:57.512Z,18.00
2022-10-06T13:47:29.964Z,18.00
2022-10-06T13:50:05.952Z,17.90
2022-10-06T13:52:39.290Z,17.90
2022-10-06T13:55:38.391Z,17.80
2022-10-06T13:58:17.845Z,17.80
2022-10-06T14:00:51.400Z,17.80
2022-10-06T14:03:23.631Z,17.90
2022-10-06T14:06:09.358Z,17.90
2022-10-06T14:08:39.127Z,17.90
2022-10-06T14:11:13.107Z,18.00
2022-10-06T14:14:00.455Z,18.00
2022-10-06T14:16:30.714Z,18.00
2022-10-06T14:19:05.354Z,18.00
2022-10-06T14:21:35.807Z,17.90
2022-10-06T14:24:18.030Z,17.90
2022-10-06T14:26:55.640Z,17.80
2022-10-06T14:29:23.003Z,17.70
2022-10-06T14:31:53.362Z,17.80
2022-10-06T14:34:28.742Z,17.80
2022-10-06T14:36:57.232Z,17.90
2022-10-06T14:39:28.909Z,17.90
2022-10-06T14:41:56.440Z,17.90
2022-10-06T14:44:23.813Z,17.80
2022-10-06T14:46:51.169Z,17.80
2022-10-06T14:49:18.633Z,17.70
2022-10-06T14:51:49.072Z,17.70
2022-10-06T14:54:16.527Z,17.70
2022-10-06T14:56:43.663Z,17.70
2022-10-06T14:59:17.171Z,17.60
2022-10-06T15:01:48.730Z,17.60
2022-10-06T15:04:19.604Z,17.50
2022-10-06T15:07:06.344Z,17.50
2022-10-06T15:09:36.223Z,17.40
2022-10-06T15:12:05.870Z,17.30
2022-10-06T15:14:39.582Z,17.30
2022-10-06T15:17:11.558Z,17.20
2022-10-06T15:19:44.054Z,17.20
2022-10-06T15:22:13.786Z,17.20
2022-10-06T15:24:40.980Z,17.10
2022-10-06T15:27:27.673Z,17.00
2022-10-06T15:29:57.476Z,17.00
2022-10-06T15:32:29.909Z,16.90
2022-10-06T15:35:00.758Z,16.80
2022-10-06T15:37:27.999Z,16.80
2022-10-06T15:39:59.661Z,16.70
2022-10-06T15:42:29.288Z,16.70
2022-10-06T15:45:06.560Z,16.70
2022-10-06T15:47:35.685Z,16.60
2022-10-06T15:50:08.188Z,16.60
2022-10-06T15:52:37.913Z,16.50
2022-10-06T15:55:13.051Z,16.50
2022-10-06T15:57:40.261Z,16.40
2022-10-06T16:00:09.148Z,16.40
2022-10-06T16:02:42.111Z,16.30
2022-10-06T16:05:12.199Z,16.30
2022-10-06T16:07:39.294Z,16.30
2022-10-06T16:10:06.890Z,16.20
2022-10-06T16:12:34.392Z,16.10
2022-10-06T16:15:01.489Z,16.00
2022-10-06T16:17:33.140Z,16.00
2022-10-06T16:20:05.307Z,15.90
2022-10-06T16:22:37.273Z,15.90
2022-10-06T16:25:05.634Z,15.80
2022-10-06T16:27:35.346Z,15.80
2022-10-06T16:30:02.606Z,15.70
2022-10-06T16:32:30.293Z,15.70
2022-10-06T16:34:57.464Z,15.60
2022-10-06T16:37:24.880Z,15.50
2022-10-06T16:39:54.479Z,15.40
2022-10-06T16:42:24.595Z,15.40
2022-10-06T16:44:56.660Z,15.40
2022-10-06T16:47:26.319Z,15.30
2022-10-06T16:49:55.960Z,15.20
2022-10-06T16:52:23.047Z,15.20
2022-10-06T16:54:52.252Z,15.10
2022-10-06T16:57:21.736Z,15.00
2022-10-06T16:59:48.783Z,15.00
2022-10-06T17:02:16.041Z,15.00
2022-10-06T17:04:45.619Z,14.90
2022-10-06T17:07:15.055Z,14.90
2022-10-06T17:10:01.797Z,14.90
2022-10-06T17:12:34.236Z,14.90
2022-10-06T17:15:06.257Z,14.80
2022-10-06T17:17:33.484Z,14.80
2022-10-06T17:20:03.337Z,14.80
2022-10-06T17:22:32.997Z,14.80
2022-10-06T17:25:04.735Z,14.80
2022-10-06T17:27:32.691Z,14.70
2022-10-06T17:30:02.464Z,14.70
2022-10-06T17:32:34.360Z,14.70
2022-10-06T17:35:01.579Z,14.70
2022-10-06T17:37:29.748Z,14.60
2022-10-06T17:40:02.240Z,14.70
2022-10-06T17:42:29.589Z,14.60
2022-10-06T17:44:58.833Z,14.60
2022-10-06T17:47:29.989Z,14.60
2022-10-06T17:49:58.109Z,14.50
2022-10-06T17:52:30.667Z,14.50
2022-10-06T17:55:00.335Z,14.40
2022-10-06T17:57:30.441Z,14.40
2022-10-06T17:59:59.637Z,14.40
2022-10-06T18:02:31.772Z,14.30
2022-10-06T18:04:58.922Z,14.30
2022-10-06T18:07:26.522Z,14.20
2022-10-06T18:10:14.379Z,14.20
2022-10-06T18:12:44.203Z,14.10
2022-10-06T18:15:16.114Z,14.10
2022-10-06T18:17:50.559Z,14.10
2022-10-06T18:20:17.623Z,14.10
2022-10-06T18:22:50.348Z,14.00
2022-10-06T18:25:25.887Z,14.00
2022-10-06T18:27:56.596Z,13.90
2022-10-06T18:30:29.329Z,13.90
2022-10-06T18:36:17.880Z,13.80
2022-10-06T18:38:49.229Z,13.80
2022-10-06T18:41:20.245Z,13.80
2022-10-06T18:43:50.111Z,13.70
2022-10-06T18:46:41.924Z,13.70
2022-10-06T18:49:12.876Z,13.50
2022-10-06T18:51:46.178Z,13.70
2022-10-06T18:54:18.922Z,13.60
2022-10-06T18:56:50.729Z,13.60
2022-10-06T18:59:26.669Z,13.60
2022-10-06T19:02:00.377Z,13.50
2022-10-06T19:04:32.782Z,13.50
2022-10-06T19:07:05.370Z,13.50
2022-10-06T19:09:35.009Z,13.40
2022-10-06T19:12:04.773Z,13.50
2022-10-06T19:17:14.831Z,13.30
2022-10-06T19:19:51.394Z,13.30
2022-10-06T19:22:26.462Z,13.30
2022-10-06T19:24:53.651Z,13.20
2022-10-06T19:29:56.912Z,13.00
2022-10-06T19:32:32.373Z,13.00
2022-10-06T19:35:00.155Z,12.90
2022-10-06T19:37:30.853Z,12.70
2022-10-06T19:39:58.389Z,12.70
2022-10-06T19:42:49.047Z,12.70
2022-10-06T19:45:21.069Z,12.60
2022-10-06T19:47:57.360Z,12.40
2022-10-06T19:50:27.101Z,12.40
2022-10-06T19:52:57.195Z,12.30
2022-10-06T19:55:28.734Z,12.30
2022-10-06T19:57:56.145Z,12.20
2022-10-06T20:00:26.778Z,12.10
2022-10-06T20:02:56.391Z,12.10
2022-10-06T20:05:28.459Z,12.00
2022-10-06T20:07:56.161Z,12.00
2022-10-06T20:10:28.018Z,11.90
2022-10-06T20:12:55.728Z,11.80
2022-10-06T20:15:25.374Z,11.90
2022-10-06T20:17:52.798Z,12.00
2022-10-06T20:20:22.390Z,11.90
2022-10-06T20:22:49.855Z,12.10
2022-10-06T20:25:19.546Z,11.80
2022-10-06T20:27:47.036Z,11.80
2022-10-06T20:30:14.217Z,11.80
2022-10-06T20:32:41.636Z,11.70
2022-10-06T20:35:09.580Z,11.70
2022-10-06T20:37:41.835Z,11.70
2022-10-06T20:40:30.083Z,11.70
2022-10-06T20:42:59.381Z,11.80
2022-10-06T20:45:31.851Z,11.80
2022-10-06T20:48:00.111Z,11.70
2022-10-06T20:50:30.266Z,11.80
2022-10-06T20:52:58.391Z,11.80
2022-10-06T20:55:25.509Z,11.80
2022-10-06T20:57:53.000Z,11.90
2022-10-06T21:00:22.675Z,11.90
2022-10-06T21:02:52.013Z,12.00
2022-10-06T21:05:24.341Z,12.00
2022-10-06T21:07:51.853Z,12.00
2022-10-06T21:10:23.544Z,11.90
2022-10-06T21:12:50.681Z,12.00
2022-10-06T21:15:22.696Z,12.00
2022-10-06T21:17:50.205Z,12.00
2022-10-06T21:20:19.493Z,12.10
2022-10-06T21:22:52.815Z,12.10
2022-10-06T21:25:22.645Z,12.10
2022-10-06T21:27:49.762Z,12.10
2022-10-06T21:30:17.486Z,12.10
2022-10-06T21:32:47.506Z,12.10
2022-10-06T21:35:16.773Z,12.10
2022-10-06T21:37:44.597Z,12.10
2022-10-06T21:40:14.613Z,12.10
2022-10-06T21:42:44.284Z,12.10
2022-10-06T21:45:16.845Z,12.00
2022-10-06T21:47:47.659Z,12.00
2022-10-06T21:50:19.296Z,11.90
2022-10-06T21:52:46.429Z,11.90
2022-10-06T21:55:13.887Z,11.80
2022-10-06T21:57:43.462Z,11.80
2022-10-06T22:00:14.564Z,11.70
2022-10-06T22:02:43.824Z,11.70
2022-10-06T22:05:13.380Z,11.70
2022-10-06T22:07:43.280Z,11.50
2022-10-06T22:10:10.545Z,11.40
2022-10-06T22:12:42.107Z,11.30
2022-10-06T22:15:14.200Z,11.20
2022-10-06T22:17:43.980Z,11.10
2022-10-06T22:20:13.479Z,11.10
2022-10-06T22:22:43.366Z,11.10
2022-10-06T22:25:15.283Z,11.00
2022-10-06T22:27:42.811Z,10.90
2022-10-06T22:30:11.197Z,10.80
2022-10-06T22:32:40.579Z,10.70
2022-10-06T22:35:08.546Z,10.60
2022-10-06T22:37:38.092Z,10.50
2022-10-06T22:40:07.750Z,10.60
2022-10-06T22:42:40.193Z,10.40
2022-10-06T22:45:10.236Z,10.50
2022-10-06T22:47:37.489Z,10.50
2022-10-06T22:50:05.192Z,10.50
2022-10-06T22:52:34.825Z,10.50
2022-10-06T22:55:04.570Z,10.50
2022-10-06T22:57:36.990Z,10.40
2022-10-06T23:00:04.587Z,10.30
2022-10-06T23:02:34.567Z,10.20
2022-10-06T23:05:01.885Z,10.10
2022-10-06T23:07:31.635Z,10.10
2022-10-06T23:10:03.350Z,10.20
2022-10-06T23:12:32.937Z,10.20
2022-10-06T23:15:05.226Z,10.20
2022-10-06T23:17:34.550Z,10.20
2022-10-06T23:20:01.862Z,10.10
2022-10-06T23:22:31.202Z,10.00
2022-10-06T23:24:58.487Z,10.10
2022-10-06T23:27:27.825Z,9.90
2022-10-06T23:29:55.062Z,9.90
2022-10-06T23:32:22.558Z,9.80
2022-10-06T23:34:51.929Z,9.70
2022-10-06T23:37:21.649Z,9.70
2022-10-06T23:39:51.490Z,9.70
2022-10-06T23:42:23.536Z,9.60
2022-10-06T23:44:50.599Z,9.60
2022-10-06T23:47:17.860Z,9.70
2022-10-06T23:49:45.008Z,9.60
2022-10-06T23:52:15.091Z,9.60
2022-10-06T23:54:45.358Z,9.60
2022-10-06T23:57:12.572Z,9.50
2022-10-06T23:59:41.930Z,9.50
